Kaneohe, Hawaii
Current Conditions -  °F | °C
As of 9:57 PM on Tuesday 21 Oct 2014 (Local Time) from PHNG Reporting Station
NA  
Wind Chill: 79°   Ceiling: NA
Heat Index: 82°   Visibility: 10mi
Dew Point: 73°   Wind: 6mph
Humidity: 82%   Direction: 90°E
Pressure: 30.02"   Gusts: NA
Location:  21.42°N, 157.8°W
Report Text: PHNG 220757Z AUTO 09005KT 10SM 26/23 A3002 RMK AO2 SLP161 T02610228 $
Loading
Personal Weather Stations






























Interactive Weather Map
Tropical Storm Tracking
New forecast layout! Learn more

10-Day Weather Forecast

Advertisements
Track Severe Weather on mobile